Sahovskaja, Russia
Current Conditions -  °F | °C
As of 3:30 AM on Sunday 26 Oct 2014 (Local Time) from UUBW Reporting Station
Clear Clear  
Wind Chill: 15°   Ceiling: Unl
Heat Index: 21°   Visibility: 6mi
Dew Point: 14°   Wind: 4mph
Humidity: 74%   Direction: NA
Pressure: 30.59"   Gusts: NA
Location:  56.03°N, 35.52°E
Report Text: UUBW 260030Z VRB02MPS CAVOK M06/M10 Q1036 NOSIG
Loading
Personal Weather Stations






























Interactive Weather Map
Tropical Storm Tracking
New forecast layout! Learn more

10-Day Weather Forecast

Advertisements
Track Severe Weather on mobile